sensor_id;sensor_type;location;lat;lon;timestamp;P1;durP1;ratioP1;P2;durP2;ratioP2
22201;SDS011;11266;51.522;6.302;2022-08-03T00:00:18;10.05;;;4.20;;
22201;SDS011;11266;51.522;6.302;2022-08-03T00:01:04;10.45;;;4.70;;
22201;SDS011;11266;51.522;6.302;2022-08-03T00:01:50;7.15;;;3.70;;
22201;SDS011;11266;51.522;6.302;2022-08-03T00:02:36;9.05;;;4.15;;
22201;SDS011;11266;51.522;6.302;2022-08-03T00:03:22;10.45;;;4.28;;
22201;SDS011;11266;51.522;6.302;2022-08-03T00:04:09;7.53;;;3.58;;
22201;SDS011;11266;51.522;6.302;2022-08-03T00:04:58;8.75;;;3.88;;
22201;SDS011;11266;51.522;6.302;2022-08-03T00:05:44;11.55;;;4.25;;
22201;SDS011;11266;51.522;6.302;2022-08-03T00:06:30;8.93;;;4.18;;
22201;SDS011;11266;51.522;6.302;2022-08-03T00:07:16;8.38;;;3.95;;
22201;SDS011;11266;51.522;6.302;2022-08-03T00:08:02;9.48;;;3.88;;
22201;SDS011;11266;51.522;6.302;2022-08-03T00:08:48;9.70;;;4.00;;
22201;SDS011;11266;51.522;6.302;2022-08-03T00:09:34;8.40;;;3.80;;
22201;SDS011;11266;51.522;6.302;2022-08-03T00:10:20;10.68;;;4.43;;
22201;SDS011;11266;51.522;6.302;2022-08-03T00:11:06;9.20;;;4.25;;
22201;SDS011;11266;51.522;6.302;2022-08-03T00:11:52;9.63;;;4.00;;
22201;SDS011;11266;51.522;6.302;2022-08-03T00:12:38;10.18;;;4.57;;
22201;SDS011;11266;51.522;6.302;2022-08-03T00:13:24;9.38;;;3.85;;
22201;SDS011;11266;51.522;6.302;2022-08-03T00:14:10;9.60;;;4.25;;
22201;SDS011;11266;51.522;6.302;2022-08-03T00:14:56;7.85;;;3.38;;
22201;SDS011;11266;51.522;6.302;2022-08-03T00:15:42;9.18;;;4.60;;
22201;SDS011;11266;51.522;6.302;2022-08-03T00:16:29;8.00;;;3.42;;
22201;SDS011;11266;51.522;6.302;2022-08-03T00:17:15;10.43;;;4.03;;
22201;SDS011;11266;51.522;6.302;2022-08-03T00:18:01;8.00;;;3.15;;
22201;SDS011;11266;51.522;6.302;2022-08-03T00:18:47;5.82;;;3.05;;
22201;SDS011;11266;51.522;6.302;2022-08-03T00:19:33;10.20;;;3.90;;
22201;SDS011;11266;51.522;6.302;2022-08-03T00:20:22;8.00;;;3.22;;
22201;SDS011;11266;51.522;6.302;2022-08-03T00:21:11;7.13;;;3.33;;
22201;SDS011;11266;51.522;6.302;2022-08-03T00:21:57;10.48;;;3.78;;
22201;SDS011;11266;51.522;6.302;2022-08-03T00:22:43;11.80;;;4.20;;
22201;SDS011;11266;51.522;6.302;2022-08-03T00:23:29;7.57;;;3.35;;
22201;SDS011;11266;51.522;6.302;2022-08-03T00:24:15;10.70;;;3.75;;
22201;SDS011;11266;51.522;6.302;2022-08-03T00:25:01;6.45;;;2.70;;
22201;SDS011;11266;51.522;6.302;2022-08-03T00:25:47;10.10;;;3.00;;
22201;SDS011;11266;51.522;6.302;2022-08-03T00:26:32;8.25;;;3.15;;
22201;SDS011;11266;51.522;6.302;2022-08-03T00:27:19;7.72;;;2.95;;
22201;SDS011;11266;51.522;6.302;2022-08-03T00:28:05;7.72;;;2.72;;
22201;SDS011;11266;51.522;6.302;2022-08-03T00:28:51;7.13;;;2.80;;
22201;SDS011;11266;51.522;6.302;2022-08-03T00:29:37;7.78;;;2.92;;
22201;SDS011;11266;51.522;6.302;2022-08-03T00:30:23;8.05;;;2.70;;
22201;SDS011;11266;51.522;6.302;2022-08-03T00:31:09;7.63;;;3.08;;
22201;SDS011;11266;51.522;6.302;2022-08-03T00:31:55;6.85;;;2.90;;
22201;SDS011;11266;51.522;6.302;2022-08-03T00:32:41;5.28;;;2.45;;
22201;SDS011;11266;51.522;6.302;2022-08-03T00:33:27;5.35;;;2.80;;
22201;SDS011;11266;51.522;6.302;2022-08-03T00:34:13;7.45;;;2.80;;
22201;SDS011;11266;51.522;6.302;2022-08-03T00:34:59;7.90;;;3.25;;
22201;SDS011;11266;51.522;6.302;2022-08-03T00:35:45;6.15;;;2.97;;
22201;SDS011;11266;51.522;6.302;2022-08-03T00:36:31;6.70;;;2.90;;
22201;SDS011;11266;51.522;6.302;2022-08-03T00:37:17;5.55;;;2.50;;
22201;SDS011;11266;51.522;6.302;2022-08-03T00:38:04;8.13;;;3.25;;
22201;SDS011;11266;51.522;6.302;2022-08-03T00:38:50;5.88;;;2.55;;
22201;SDS011;11266;51.522;6.302;2022-08-03T00:39:36;5.90;;;2.58;;
22201;SDS011;11266;51.522;6.302;2022-08-03T00:40:22;8.60;;;2.97;;
22201;SDS011;11266;51.522;6.302;2022-08-03T00:41:08;6.18;;;3.17;;
22201;SDS011;11266;51.522;6.302;2022-08-03T00:41:54;9.63;;;2.97;;
22201;SDS011;11266;51.522;6.302;2022-08-03T00:42:46;6.53;;;2.60;;
22201;SDS011;11266;51.522;6.302;2022-08-03T00:43:32;7.40;;;3.85;;
22201;SDS011;11266;51.522;6.302;2022-08-03T00:44:18;7.60;;;3.53;;
22201;SDS011;11266;51.522;6.302;2022-08-03T00:45:04;6.03;;;2.65;;
22201;SDS011;11266;51.522;6.302;2022-08-03T00:45:50;7.60;;;2.88;;
22201;SDS011;11266;51.522;6.302;2022-08-03T00:46:36;8.40;;;3.25;;
22201;SDS011;11266;51.522;6.302;2022-08-03T00:47:22;6.78;;;3.03;;
22201;SDS011;11266;51.522;6.302;2022-08-03T00:48:09;5.93;;;2.75;;
22201;SDS011;11266;51.522;6.302;2022-08-03T00:48:55;8.35;;;3.67;;
22201;SDS011;11266;51.522;6.302;2022-08-03T00:49:41;5.97;;;3.22;;
22201;SDS011;11266;51.522;6.302;2022-08-03T00:50:31;12.23;;;3.55;;
22201;SDS011;11266;51.522;6.302;2022-08-03T00:51:21;10.98;;;3.92;;
22201;SDS011;11266;51.522;6.302;2022-08-03T00:52:07;10.43;;;4.25;;
22201;SDS011;11266;51.522;6.302;2022-08-03T00:52:55;10.52;;;4.05;;
22201;SDS011;11266;51.522;6.302;2022-08-03T00:53:41;11.32;;;3.97;;
22201;SDS011;11266;51.522;6.302;2022-08-03T00:54:27;8.38;;;3.97;;
22201;SDS011;11266;51.522;6.302;2022-08-03T00:55:14;12.38;;;4.90;;
22201;SDS011;11266;51.522;6.302;2022-08-03T00:56:00;10.77;;;4.70;;
22201;SDS011;11266;51.522;6.302;2022-08-03T00:56:46;13.25;;;5.30;;
22201;SDS011;11266;51.522;6.302;2022-08-03T00:57:32;10.75;;;4.85;;
22201;SDS011;11266;51.522;6.302;2022-08-03T00:58:18;12.43;;;5.25;;
22201;SDS011;11266;51.522;6.302;2022-08-03T00:59:05;17.02;;;5.70;;
22201;SDS011;11266;51.522;6.302;2022-08-03T00:59:51;10.32;;;4.88;;
22201;SDS011;11266;51.522;6.302;2022-08-03T01:00:38;13.60;;;5.50;;
22201;SDS011;11266;51.522;6.302;2022-08-03T01:01:24;11.55;;;5.07;;
22201;SDS011;11266;51.522;6.302;2022-08-03T01:02:12;12.32;;;5.05;;
22201;SDS011;11266;51.522;6.302;2022-08-03T01:03:01;11.95;;;5.45;;
22201;SDS011;11266;51.522;6.302;2022-08-03T01:03:47;13.70;;;5.60;;
22201;SDS011;11266;51.522;6.302;2022-08-03T01:04:33;11.13;;;5.13;;
22201;SDS011;11266;51.522;6.302;2022-08-03T01:05:19;11.40;;;5.38;;
22201;SDS011;11266;51.522;6.302;2022-08-03T01:06:09;12.52;;;5.32;;
22201;SDS011;11266;51.522;6.302;2022-08-03T01:08:05;13.55;;;5.40;;
22201;SDS011;11266;51.522;6.302;2022-08-03T01:09:00;12.35;;;5.35;;
22201;SDS011;11266;51.522;6.302;2022-08-03T01:09:59;9.73;;;4.22;;
22201;SDS011;11266;51.522;6.302;2022-08-03T01:11:09;12.32;;;5.07;;
22201;SDS011;11266;51.522;6.302;2022-08-03T01:12:08;10.70;;;4.60;;
22201;SDS011;11266;51.522;6.302;2022-08-03T01:13:02;9.73;;;4.38;;
22201;SDS011;11266;51.522;6.302;2022-08-03T01:14:40;11.85;;;4.88;;
22201;SDS011;11266;51.522;6.302;2022-08-03T01:16:37;10.38;;;4.50;;
22201;SDS011;11266;51.522;6.302;2022-08-03T01:18:16;11.40;;;3.95;;
22201;SDS011;11266;51.522;6.302;2022-08-03T01:20:10;10.43;;;3.95;;
22201;SDS011;11266;51.522;6.302;2022-08-03T01:20:58;13.35;;;3.90;;
22201;SDS011;11266;51.522;6.302;2022-08-03T01:23:42;8.90;;;2.85;;
22201;SDS011;11266;51.522;6.302;2022-08-03T01:26:47;6.28;;;2.85;;
22201;SDS011;11266;51.522;6.302;2022-08-03T01:27:57;7.22;;;2.92;;
22201;SDS011;11266;51.522;6.302;2022-08-03T01:29:37;6.93;;;3.13;;
22201;SDS011;11266;51.522;6.302;2022-08-03T01:30:29;6.13;;;2.83;;
22201;SDS011;11266;51.522;6.302;2022-08-03T01:31:21;10.90;;;3.40;;
22201;SDS011;11266;51.522;6.302;2022-08-03T01:32:12;6.10;;;3.13;;
22201;SDS011;11266;51.522;6.302;2022-08-03T01:33:03;8.77;;;3.65;;
22201;SDS011;11266;51.522;6.302;2022-08-03T01:33:51;10.60;;;4.18;;
22201;SDS011;11266;51.522;6.302;2022-08-03T01:34:42;10.27;;;4.25;;
22201;SDS011;11266;51.522;6.302;2022-08-03T01:35:38;11.30;;;4.53;;
22201;SDS011;11266;51.522;6.302;2022-08-03T01:36:31;9.05;;;4.22;;
22201;SDS011;11266;51.522;6.302;2022-08-03T01:37:20;10.80;;;3.70;;
22201;SDS011;11266;51.522;6.302;2022-08-03T01:38:12;8.95;;;3.95;;
22201;SDS011;11266;51.522;6.302;2022-08-03T01:38:59;12.20;;;4.78;;
22201;SDS011;11266;51.522;6.302;2022-08-03T01:39:46;9.93;;;4.50;;
22201;SDS011;11266;51.522;6.302;2022-08-03T01:40:34;11.63;;;4.90;;
22201;SDS011;11266;51.522;6.302;2022-08-03T01:41:23;10.18;;;5.03;;
22201;SDS011;11266;51.522;6.302;2022-08-03T01:42:10;10.27;;;4.47;;
22201;SDS011;11266;51.522;6.302;2022-08-03T01:42:56;10.90;;;4.63;;
22201;SDS011;11266;51.522;6.302;2022-08-03T01:43:47;12.52;;;4.95;;
22201;SDS011;11266;51.522;6.302;2022-08-03T01:44:36;13.75;;;4.63;;
22201;SDS011;11266;51.522;6.302;2022-08-03T01:45:23;9.52;;;4.55;;
22201;SDS011;11266;51.522;6.302;2022-08-03T01:46:09;11.95;;;4.40;;
22201;SDS011;11266;51.522;6.302;2022-08-03T01:46:57;14.07;;;4.90;;
22201;SDS011;11266;51.522;6.302;2022-08-03T01:47:51;12.52;;;4.97;;
22201;SDS011;11266;51.522;6.302;2022-08-03T01:48:38;11.82;;;5.15;;
22201;SDS011;11266;51.522;6.302;2022-08-03T01:49:27;9.95;;;4.70;;
22201;SDS011;11266;51.522;6.302;2022-08-03T01:50:15;10.65;;;5.10;;
22201;SDS011;11266;51.522;6.302;2022-08-03T01:51:03;11.93;;;4.88;;
22201;SDS011;11266;51.522;6.302;2022-08-03T01:51:50;12.13;;;5.07;;
22201;SDS011;11266;51.522;6.302;2022-08-03T01:52:38;16.90;;;5.63;;
22201;SDS011;11266;51.522;6.302;2022-08-03T01:53:28;10.75;;;5.30;;
22201;SDS011;11266;51.522;6.302;2022-08-03T01:54:16;9.30;;;4.18;;
22201;SDS011;11266;51.522;6.302;2022-08-03T01:55:02;8.90;;;3.95;;
22201;SDS011;11266;51.522;6.302;2022-08-03T01:55:53;9.38;;;3.90;;
22201;SDS011;11266;51.522;6.302;2022-08-03T01:56:42;9.02;;;3.80;;
22201;SDS011;11266;51.522;6.302;2022-08-03T01:57:28;12.07;;;3.90;;
22201;SDS011;11266;51.522;6.302;2022-08-03T01:58:17;7.82;;;3.65;;
22201;SDS011;11266;51.522;6.302;2022-08-03T01:59:04;11.23;;;3.95;;
22201;SDS011;11266;51.522;6.302;2022-08-03T01:59:52;8.45;;;3.33;;
22201;SDS011;11266;51.522;6.302;2022-08-03T02:00:40;6.95;;;3.33;;
22201;SDS011;11266;51.522;6.302;2022-08-03T02:01:27;7.60;;;3.60;;
22201;SDS011;11266;51.522;6.302;2022-08-03T02:02:14;9.85;;;4.20;;
22201;SDS011;11266;51.522;6.302;2022-08-03T02:03:01;9.73;;;4.00;;
22201;SDS011;11266;51.522;6.302;2022-08-03T02:03:47;10.43;;;3.70;;
22201;SDS011;11266;51.522;6.302;2022-08-03T02:04:34;8.40;;;3.63;;
22201;SDS011;11266;51.522;6.302;2022-08-03T02:05:20;13.23;;;4.00;;
22201;SDS011;11266;51.522;6.302;2022-08-03T02:06:10;7.85;;;3.63;;
22201;SDS011;11266;51.522;6.302;2022-08-03T02:06:57;9.10;;;3.25;;
22201;SDS011;11266;51.522;6.302;2022-08-03T02:07:43;10.38;;;4.18;;
22201;SDS011;11266;51.522;6.302;2022-08-03T02:08:30;9.63;;;4.07;;
22201;SDS011;11266;51.522;6.302;2022-08-03T02:09:17;14.50;;;4.00;;
22201;SDS011;11266;51.522;6.302;2022-08-03T02:10:07;13.93;;;4.72;;
22201;SDS011;11266;51.522;6.302;2022-08-03T02:10:55;9.57;;;3.58;;
22201;SDS011;11266;51.522;6.302;2022-08-03T02:11:42;11.18;;;4.40;;
22201;SDS011;11266;51.522;6.302;2022-08-03T02:12:29;8.48;;;3.75;;
22201;SDS011;11266;51.522;6.302;2022-08-03T02:13:16;10.75;;;4.07;;
22201;SDS011;11266;51.522;6.302;2022-08-03T02:14:04;11.00;;;3.95;;
22201;SDS011;11266;51.522;6.302;2022-08-03T02:14:51;9.27;;;3.78;;
22201;SDS011;11266;51.522;6.302;2022-08-03T02:15:38;8.73;;;4.15;;
22201;SDS011;11266;51.522;6.302;2022-08-03T02:16:26;13.38;;;4.60;;
22201;SDS011;11266;51.522;6.302;2022-08-03T02:17:13;9.38;;;4.07;;
22201;SDS011;11266;51.522;6.302;2022-08-03T02:18:00;10.82;;;4.43;;
22201;SDS011;11266;51.522;6.302;2022-08-03T02:18:50;14.27;;;4.68;;
22201;SDS011;11266;51.522;6.302;2022-08-03T02:19:38;8.10;;;4.20;;
22201;SDS011;11266;51.522;6.302;2022-08-03T02:20:25;12.75;;;4.75;;
22201;SDS011;11266;51.522;6.302;2022-08-03T02:21:12;13.10;;;4.55;;
22201;SDS011;11266;51.522;6.302;2022-08-03T02:21:58;9.35;;;4.18;;
22201;SDS011;11266;51.522;6.302;2022-08-03T02:22:44;8.13;;;4.10;;
22201;SDS011;11266;51.522;6.302;2022-08-03T02:23:33;12.55;;;4.28;;
22201;SDS011;11266;51.522;6.302;2022-08-03T02:24:19;14.75;;;4.80;;
22201;SDS011;11266;51.522;6.302;2022-08-03T02:25:06;9.55;;;3.83;;
22201;SDS011;11266;51.522;6.302;2022-08-03T02:26:00;10.55;;;3.63;;
22201;SDS011;11266;51.522;6.302;2022-08-03T02:26:46;10.68;;;4.30;;
22201;SDS011;11266;51.522;6.302;2022-08-03T02:27:33;8.55;;;3.97;;
22201;SDS011;11266;51.522;6.302;2022-08-03T02:28:21;10.10;;;3.53;;
22201;SDS011;11266;51.522;6.302;2022-08-03T02:29:11;7.95;;;3.40;;
22201;SDS011;11266;51.522;6.302;2022-08-03T02:30:02;9.23;;;3.38;;
22201;SDS011;11266;51.522;6.302;2022-08-03T02:30:50;6.65;;;3.38;;
22201;SDS011;11266;51.522;6.302;2022-08-03T02:31:37;8.48;;;3.58;;
22201;SDS011;11266;51.522;6.302;2022-08-03T02:32:28;8.75;;;3.20;;
22201;SDS011;11266;51.522;6.302;2022-08-03T02:33:25;9.05;;;3.20;;
22201;SDS011;11266;51.522;6.302;2022-08-03T02:34:12;9.13;;;3.60;;
22201;SDS011;11266;51.522;6.302;2022-08-03T02:34:59;9.65;;;3.42;;
22201;SDS011;11266;51.522;6.302;2022-08-03T02:35:46;10.23;;;3.60;;
22201;SDS011;11266;51.522;6.302;2022-08-03T02:36:34;10.85;;;2.97;;
22201;SDS011;11266;51.522;6.302;2022-08-03T02:37:21;6.35;;;2.85;;
22201;SDS011;11266;51.522;6.302;2022-08-03T02:38:10;8.07;;;2.65;;
22201;SDS011;11266;51.522;6.302;2022-08-03T02:38:58;6.00;;;3.10;;
22201;SDS011;11266;51.522;6.302;2022-08-03T02:39:44;5.53;;;2.65;;
22201;SDS011;11266;51.522;6.302;2022-08-03T02:40:31;9.40;;;3.15;;
22201;SDS011;11266;51.522;6.302;2022-08-03T02:41:19;10.30;;;3.60;;
22201;SDS011;11266;51.522;6.302;2022-08-03T02:42:06;7.00;;;3.15;;
22201;SDS011;11266;51.522;6.302;2022-08-03T02:42:53;6.35;;;2.88;;
22201;SDS011;11266;51.522;6.302;2022-08-03T02:43:41;8.85;;;3.08;;
22201;SDS011;11266;51.522;6.302;2022-08-03T02:44:30;8.15;;;3.20;;
22201;SDS011;11266;51.522;6.302;2022-08-03T02:45:17;7.90;;;3.30;;
22201;SDS011;11266;51.522;6.302;2022-08-03T02:46:05;10.70;;;3.25;;
22201;SDS011;11266;51.522;6.302;2022-08-03T02:46:53;7.47;;;3.13;;
22201;SDS011;11266;51.522;6.302;2022-08-03T02:47:40;6.28;;;3.05;;
22201;SDS011;11266;51.522;6.302;2022-08-03T02:48:27;7.45;;;3.20;;
22201;SDS011;11266;51.522;6.302;2022-08-03T02:49:15;6.95;;;3.08;;
22201;SDS011;11266;51.522;6.302;2022-08-03T02:50:03;9.80;;;3.30;;
22201;SDS011;11266;51.522;6.302;2022-08-03T02:50:50;10.80;;;2.97;;
22201;SDS011;11266;51.522;6.302;2022-08-03T02:51:37;6.07;;;2.88;;
22201;SDS011;11266;51.522;6.302;2022-08-03T02:52:24;7.13;;;2.72;;
22201;SDS011;11266;51.522;6.302;2022-08-03T02:53:11;7.82;;;3.28;;
22201;SDS011;11266;51.522;6.302;2022-08-03T02:53:59;10.52;;;3.47;;
22201;SDS011;11266;51.522;6.302;2022-08-03T02:54:46;10.27;;;3.10;;
22201;SDS011;11266;51.522;6.302;2022-08-03T02:55:34;14.02;;;4.15;;
22201;SDS011;11266;51.522;6.302;2022-08-03T02:56:21;8.98;;;3.50;;
22201;SDS011;11266;51.522;6.302;2022-08-03T02:57:07;9.10;;;3.80;;
22201;SDS011;11266;51.522;6.302;2022-08-03T02:57:54;10.50;;;3.72;;
22201;SDS011;11266;51.522;6.302;2022-08-03T02:58:41;8.35;;;3.70;;
22201;SDS011;11266;51.522;6.302;2022-08-03T02:59:27;14.10;;;3.88;;
22201;SDS011;11266;51.522;6.302;2022-08-03T03:00:15;11.13;;;4.18;;
22201;SDS011;11266;51.522;6.302;2022-08-03T03:01:01;8.80;;;3.92;;
22201;SDS011;11266;51.522;6.302;2022-08-03T03:01:48;11.93;;;4.50;;
22201;SDS011;11266;51.522;6.302;2022-08-03T03:02:34;8.70;;;4.25;;
22201;SDS011;11266;51.522;6.302;2022-08-03T03:03:21;9.48;;;4.22;;
22201;SDS011;11266;51.522;6.302;2022-08-03T03:04:10;10.38;;;4.55;;
22201;SDS011;11266;51.522;6.302;2022-08-03T03:04:58;12.88;;;5.00;;
22201;SDS011;11266;51.522;6.302;2022-08-03T03:05:46;11.48;;;4.13;;
22201;SDS011;11266;51.522;6.302;2022-08-03T03:06:32;11.45;;;5.22;;
22201;SDS011;11266;51.522;6.302;2022-08-03T03:07:19;11.45;;;4.38;;
22201;SDS011;11266;51.522;6.302;2022-08-03T03:08:06;9.25;;;4.82;;
22201;SDS011;11266;51.522;6.302;2022-08-03T03:08:54;11.77;;;4.90;;
22201;SDS011;11266;51.522;6.302;2022-08-03T03:09:42;14.55;;;5.13;;
22201;SDS011;11266;51.522;6.302;2022-08-03T03:10:28;14.95;;;4.72;;
22201;SDS011;11266;51.522;6.302;2022-08-03T03:11:15;14.32;;;5.07;;
22201;SDS011;11266;51.522;6.302;2022-08-03T03:12:02;12.20;;;4.90;;
22201;SDS011;11266;51.522;6.302;2022-08-03T03:12:49;12.10;;;4.40;;
22201;SDS011;11266;51.522;6.302;2022-08-03T03:13:36;13.07;;;4.88;;
22201;SDS011;11266;51.522;6.302;2022-08-03T03:14:22;11.98;;;4.45;;
22201;SDS011;11266;51.522;6.302;2022-08-03T03:15:09;8.02;;;4.25;;
22201;SDS011;11266;51.522;6.302;2022-08-03T03:16:01;11.45;;;4.70;;
22201;SDS011;11266;51.522;6.302;2022-08-03T03:16:47;11.88;;;5.13;;
22201;SDS011;11266;51.522;6.302;2022-08-03T03:17:34;10.02;;;4.35;;
22201;SDS011;11266;51.522;6.302;2022-08-03T03:18:22;11.93;;;4.85;;
22201;SDS011;11266;51.522;6.302;2022-08-03T03:19:08;10.73;;;4.38;;
22201;SDS011;11266;51.522;6.302;2022-08-03T03:19:56;11.85;;;4.47;;
22201;SDS011;11266;51.522;6.302;2022-08-03T03:20:42;16.90;;;4.97;;
22201;SDS011;11266;51.522;6.302;2022-08-03T03:21:30;10.68;;;4.90;;
22201;SDS011;11266;51.522;6.302;2022-08-03T03:22:16;10.85;;;4.80;;
22201;SDS011;11266;51.522;6.302;2022-08-03T03:23:03;11.95;;;5.47;;
22201;SDS011;11266;51.522;6.302;2022-08-03T03:23:50;14.27;;;5.47;;
22201;SDS011;11266;51.522;6.302;2022-08-03T03:24:36;13.35;;;5.45;;
22201;SDS011;11266;51.522;6.302;2022-08-03T03:25:24;23.55;;;6.15;;
22201;SDS011;11266;51.522;6.302;2022-08-03T03:26:11;18.40;;;6.20;;
22201;SDS011;11266;51.522;6.302;2022-08-03T03:26:57;21.33;;;6.82;;
22201;SDS011;11266;51.522;6.302;2022-08-03T03:27:46;17.73;;;6.50;;
22201;SDS011;11266;51.522;6.302;2022-08-03T03:28:32;20.17;;;7.35;;
22201;SDS011;11266;51.522;6.302;2022-08-03T03:29:21;17.30;;;6.45;;
22201;SDS011;11266;51.522;6.302;2022-08-03T03:30:07;16.20;;;6.40;;
22201;SDS011;11266;51.522;6.302;2022-08-03T03:30:53;20.65;;;7.72;;
22201;SDS011;11266;51.522;6.302;2022-08-03T03:31:40;15.48;;;6.85;;
22201;SDS011;11266;51.522;6.302;2022-08-03T03:32:26;16.63;;;7.10;;
22201;SDS011;11266;51.522;6.302;2022-08-03T03:33:13;20.30;;;7.18;;
22201;SDS011;11266;51.522;6.302;2022-08-03T03:33:59;22.50;;;7.40;;
22201;SDS011;11266;51.522;6.302;2022-08-03T03:34:45;22.83;;;7.70;;
22201;SDS011;11266;51.522;6.302;2022-08-03T03:35:32;17.27;;;7.20;;
22201;SDS011;11266;51.522;6.302;2022-08-03T03:36:18;17.92;;;7.07;;
22201;SDS011;11266;51.522;6.302;2022-08-03T03:37:04;19.08;;;6.97;;
22201;SDS011;11266;51.522;6.302;2022-08-03T03:37:50;16.77;;;6.75;;
22201;SDS011;11266;51.522;6.302;2022-08-03T03:38:37;18.00;;;6.82;;
22201;SDS011;11266;51.522;6.302;2022-08-03T03:39:23;14.82;;;6.93;;
22201;SDS011;11266;51.522;6.302;2022-08-03T03:40:09;18.20;;;6.10;;
22201;SDS011;11266;51.522;6.302;2022-08-03T03:40:55;15.05;;;6.28;;
22201;SDS011;11266;51.522;6.302;2022-08-03T03:41:41;17.20;;;6.57;;
22201;SDS011;11266;51.522;6.302;2022-08-03T03:42:31;16.55;;;5.97;;
22201;SDS011;11266;51.522;6.302;2022-08-03T03:43:19;17.45;;;6.47;;
22201;SDS011;11266;51.522;6.302;2022-08-03T03:44:07;15.38;;;6.28;;
22201;SDS011;11266;51.522;6.302;2022-08-03T03:44:56;14.10;;;5.75;;
22201;SDS011;11266;51.522;6.302;2022-08-03T03:45:43;11.05;;;4.82;;
22201;SDS011;11266;51.522;6.302;2022-08-03T03:46:30;11.98;;;4.60;;
22201;SDS011;11266;51.522;6.302;2022-08-03T03:47:17;15.70;;;5.20;;
22201;SDS011;11266;51.522;6.302;2022-08-03T03:48:03;9.68;;;4.38;;
22201;SDS011;11266;51.522;6.302;2022-08-03T03:48:49;12.27;;;4.32;;
22201;SDS011;11266;51.522;6.302;2022-08-03T03:49:35;10.10;;;4.75;;
22201;SDS011;11266;51.522;6.302;2022-08-03T03:50:22;14.80;;;5.00;;
22201;SDS011;11266;51.522;6.302;2022-08-03T03:51:08;10.80;;;4.28;;
22201;SDS011;11266;51.522;6.302;2022-08-03T03:51:54;8.50;;;4.32;;
22201;SDS011;11266;51.522;6.302;2022-08-03T03:52:43;9.60;;;4.20;;
22201;SDS011;11266;51.522;6.302;2022-08-03T03:53:29;9.25;;;4.03;;
22201;SDS011;11266;51.522;6.302;2022-08-03T03:54:15;8.65;;;3.83;;
22201;SDS011;11266;51.522;6.302;2022-08-03T03:55:01;7.72;;;3.30;;
22201;SDS011;11266;51.522;6.302;2022-08-03T03:55:47;8.85;;;4.05;;
22201;SDS011;11266;51.522;6.302;2022-08-03T03:56:33;7.88;;;3.38;;
22201;SDS011;11266;51.522;6.302;2022-08-03T03:57:19;9.48;;;3.85;;
22201;SDS011;11266;51.522;6.302;2022-08-03T03:58:05;11.95;;;4.47;;
22201;SDS011;11266;51.522;6.302;2022-08-03T03:58:52;6.68;;;3.28;;
22201;SDS011;11266;51.522;6.302;2022-08-03T03:59:39;8.23;;;3.13;;
22201;SDS011;11266;51.522;6.302;2022-08-03T04:00:25;8.48;;;3.15;;
22201;SDS011;11266;51.522;6.302;2022-08-03T04:01:11;7.38;;;3.17;;
22201;SDS011;11266;51.522;6.302;2022-08-03T04:01:57;8.85;;;3.55;;
22201;SDS011;11266;51.522;6.302;2022-08-03T04:02:44;6.70;;;3.22;;
22201;SDS011;11266;51.522;6.302;2022-08-03T04:03:30;7.50;;;3.13;;
22201;SDS011;11266;51.522;6.302;2022-08-03T04:04:16;7.30;;;2.83;;
22201;SDS011;11266;51.522;6.302;2022-08-03T04:05:21;6.47;;;2.72;;
22201;SDS011;11266;51.522;6.302;2022-08-03T04:06:25;7.47;;;3.40;;
22201;SDS011;11266;51.522;6.302;2022-08-03T04:07:31;5.88;;;2.85;;
22201;SDS011;11266;51.522;6.302;2022-08-03T04:08:40;6.10;;;2.80;;
22201;SDS011;11266;51.522;6.302;2022-08-03T04:09:45;5.50;;;2.35;;
22201;SDS011;11266;51.522;6.302;2022-08-03T04:11:47;5.72;;;2.80;;
22201;SDS011;11266;51.522;6.302;2022-08-03T04:12:34;4.90;;;2.67;;
22201;SDS011;11266;51.522;6.302;2022-08-03T04:13:22;5.75;;;2.42;;
22201;SDS011;11266;51.522;6.302;2022-08-03T04:14:11;4.07;;;2.17;;
22201;SDS011;11266;51.522;6.302;2022-08-03T04:14:57;5.65;;;2.13;;
22201;SDS011;11266;51.522;6.302;2022-08-03T04:15:44;5.68;;;2.25;;
22201;SDS011;11266;51.522;6.302;2022-08-03T04:16:32;4.25;;;2.22;;
22201;SDS011;11266;51.522;6.302;2022-08-03T04:17:18;4.50;;;2.53;;
22201;SDS011;11266;51.522;6.302;2022-08-03T04:18:05;5.75;;;2.50;;
22201;SDS011;11266;51.522;6.302;2022-08-03T04:18:54;4.68;;;2.15;;
22201;SDS011;11266;51.522;6.302;2022-08-03T04:19:41;4.13;;;2.28;;
22201;SDS011;11266;51.522;6.302;2022-08-03T04:20:29;4.80;;;1.98;;
22201;SDS011;11266;51.522;6.302;2022-08-03T04:21:20;7.57;;;2.05;;
22201;SDS011;11266;51.522;6.302;2022-08-03T04:22:13;3.65;;;1.92;;
22201;SDS011;11266;51.522;6.302;2022-08-03T04:23:01;7.30;;;2.45;;
22201;SDS011;11266;51.522;6.302;2022-08-03T04:23:48;6.47;;;2.55;;
22201;SDS011;11266;51.522;6.302;2022-08-03T04:24:39;5.28;;;2.20;;
22201;SDS011;11266;51.522;6.302;2022-08-03T04:25:27;3.92;;;2.20;;
22201;SDS011;11266;51.522;6.302;2022-08-03T04:26:18;5.93;;;2.40;;
22201;SDS011;11266;51.522;6.302;2022-08-03T04:27:05;4.65;;;2.15;;
22201;SDS011;11266;51.522;6.302;2022-08-03T04:27:52;4.90;;;2.33;;
22201;SDS011;11266;51.522;6.302;2022-08-03T04:28:40;5.45;;;2.70;;
22201;SDS011;11266;51.522;6.302;2022-08-03T04:29:26;4.85;;;2.00;;
22201;SDS011;11266;51.522;6.302;2022-08-03T04:30:13;7.30;;;3.10;;
22201;SDS011;11266;51.522;6.302;2022-08-03T04:31:00;4.68;;;2.28;;
22201;SDS011;11266;51.522;6.302;2022-08-03T04:31:47;4.40;;;2.10;;
22201;SDS011;11266;51.522;6.302;2022-08-03T04:32:33;4.15;;;1.98;;
22201;SDS011;11266;51.522;6.302;2022-08-03T04:33:20;5.03;;;1.98;;
22201;SDS011;11266;51.522;6.302;2022-08-03T04:34:08;6.55;;;2.20;;
22201;SDS011;11266;51.522;6.302;2022-08-03T04:34:55;4.32;;;2.30;;
22201;SDS011;11266;51.522;6.302;2022-08-03T04:35:41;6.93;;;2.28;;
22201;SDS011;11266;51.522;6.302;2022-08-03T04:36:31;8.82;;;1.92;;
22201;SDS011;11266;51.522;6.302;2022-08-03T04:37:23;5.07;;;1.92;;
22201;SDS011;11266;51.522;6.302;2022-08-03T04:38:09;7.13;;;2.50;;
22201;SDS011;11266;51.522;6.302;2022-08-03T04:39:06;5.28;;;2.05;;
22201;SDS011;11266;51.522;6.302;2022-08-03T04:39:55;4.90;;;2.20;;
22201;SDS011;11266;51.522;6.302;2022-08-03T04:40:41;5.35;;;2.28;;
22201;SDS011;11266;51.522;6.302;2022-08-03T04:41:28;6.82;;;2.95;;
22201;SDS011;11266;51.522;6.302;2022-08-03T04:42:15;4.63;;;2.50;;
22201;SDS011;11266;51.522;6.302;2022-08-03T04:43:01;6.85;;;2.45;;
22201;SDS011;11266;51.522;6.302;2022-08-03T04:43:48;5.60;;;2.60;;
22201;SDS011;11266;51.522;6.302;2022-08-03T04:44:41;6.43;;;2.53;;
22201;SDS011;11266;51.522;6.302;2022-08-03T04:45:29;6.07;;;2.40;;
22201;SDS011;11266;51.522;6.302;2022-08-03T04:46:15;5.05;;;1.95;;
22201;SDS011;11266;51.522;6.302;2022-08-03T04:47:01;4.07;;;1.88;;
22201;SDS011;11266;51.522;6.302;2022-08-03T04:47:47;5.35;;;2.17;;
22201;SDS011;11266;51.522;6.302;2022-08-03T04:48:33;5.53;;;2.13;;
22201;SDS011;11266;51.522;6.302;2022-08-03T04:49:20;6.18;;;2.50;;
22201;SDS011;11266;51.522;6.302;2022-08-03T04:50:06;6.30;;;2.38;;
22201;SDS011;11266;51.522;6.302;2022-08-03T04:50:54;4.35;;;2.03;;
22201;SDS011;11266;51.522;6.302;2022-08-03T04:51:41;4.82;;;2.40;;
22201;SDS011;11266;51.522;6.302;2022-08-03T04:52:27;5.88;;;2.72;;
22201;SDS011;11266;51.522;6.302;2022-08-03T04:53:13;3.50;;;1.92;;
22201;SDS011;11266;51.522;6.302;2022-08-03T04:54:02;5.35;;;1.80;;
22201;SDS011;11266;51.522;6.302;2022-08-03T04:54:48;4.72;;;2.55;;
22201;SDS011;11266;51.522;6.302;2022-08-03T04:55:35;4.55;;;2.30;;
22201;SDS011;11266;51.522;6.302;2022-08-03T04:56:21;5.00;;;2.15;;
22201;SDS011;11266;51.522;6.302;2022-08-03T04:57:07;6.75;;;2.67;;
22201;SDS011;11266;51.522;6.302;2022-08-03T04:57:53;4.05;;;2.17;;